sensor_id;sensor_type;location;lat;lon;timestamp;temperature;humidity
6379;DHT22;3222;48.858;10.128;2022-12-10T00:01:40;0.40;99.90
6379;DHT22;3222;48.858;10.128;2022-12-10T00:04:05;0.40;99.90
6379;DHT22;3222;48.858;10.128;2022-12-10T00:06:33;0.40;99.90
6379;DHT22;3222;48.858;10.128;2022-12-10T00:09:01;0.50;99.90
6379;DHT22;3222;48.858;10.128;2022-12-10T00:11:27;0.40;99.90
6379;DHT22;3222;48.858;10.128;2022-12-10T00:13:53;0.50;99.90
6379;DHT22;3222;48.858;10.128;2022-12-10T00:16:22;0.50;99.90
6379;DHT22;3222;48.858;10.128;2022-12-10T00:18:49;0.50;99.90
6379;DHT22;3222;48.858;10.128;2022-12-10T00:21:17;0.60;99.90
6379;DHT22;3222;48.858;10.128;2022-12-10T00:23:43;0.60;99.90
6379;DHT22;3222;48.858;10.128;2022-12-10T00:26:22;0.60;99.90
6379;DHT22;3222;48.858;10.128;2022-12-10T00:28:48;0.50;99.90
6379;DHT22;3222;48.858;10.128;2022-12-10T00:31:20;0.50;99.90
6379;DHT22;3222;48.858;10.128;2022-12-10T00:33:46;0.50;99.90
6379;DHT22;3222;48.858;10.128;2022-12-10T00:36:18;0.40;99.90
6379;DHT22;3222;48.858;10.128;2022-12-10T00:38:45;0.50;99.90
6379;DHT22;3222;48.858;10.128;2022-12-10T00:41:12;0.40;99.90
6379;DHT22;3222;48.858;10.128;2022-12-10T00:43:38;0.40;99.90
6379;DHT22;3222;48.858;10.128;2022-12-10T00:46:05;0.40;99.90
6379;DHT22;3222;48.858;10.128;2022-12-10T00:48:31;0.40;99.90
6379;DHT22;3222;48.858;10.128;2022-12-10T00:51:10;0.40;99.90
6379;DHT22;3222;48.858;10.128;2022-12-10T00:53:37;0.40;99.90
6379;DHT22;3222;48.858;10.128;2022-12-10T00:56:04;0.40;99.90
6379;DHT22;3222;48.858;10.128;2022-12-10T00:58:32;0.40;99.90
6379;DHT22;3222;48.858;10.128;2022-12-10T01:01:11;0.40;99.90
6379;DHT22;3222;48.858;10.128;2022-12-10T01:03:38;0.50;99.90
6379;DHT22;3222;48.858;10.128;2022-12-10T01:06:19;0.50;99.90
6379;DHT22;3222;48.858;10.128;2022-12-10T01:08:46;0.40;99.90
6379;DHT22;3222;48.858;10.128;2022-12-10T01:11:14;0.40;99.90
6379;DHT22;3222;48.858;10.128;2022-12-10T01:13:41;0.40;99.90
6379;DHT22;3222;48.858;10.128;2022-12-10T01:16:08;0.50;99.90
6379;DHT22;3222;48.858;10.128;2022-12-10T01:18:35;0.50;99.90
6379;DHT22;3222;48.858;10.128;2022-12-10T01:21:05;0.50;99.90
6379;DHT22;3222;48.858;10.128;2022-12-10T01:23:38;0.50;99.90
6379;DHT22;3222;48.858;10.128;2022-12-10T01:26:07;0.50;99.90
6379;DHT22;3222;48.858;10.128;2022-12-10T01:28:35;0.50;99.90
6379;DHT22;3222;48.858;10.128;2022-12-10T01:31:02;0.50;99.90
6379;DHT22;3222;48.858;10.128;2022-12-10T01:33:30;0.50;99.90
6379;DHT22;3222;48.858;10.128;2022-12-10T01:36:02;0.50;99.90
6379;DHT22;3222;48.858;10.128;2022-12-10T01:38:28;0.50;99.90
6379;DHT22;3222;48.858;10.128;2022-12-10T01:40:56;0.60;99.90
6379;DHT22;3222;48.858;10.128;2022-12-10T01:43:21;0.60;99.90
6379;DHT22;3222;48.858;10.128;2022-12-10T01:45:47;0.60;99.90
6379;DHT22;3222;48.858;10.128;2022-12-10T01:48:13;0.70;99.90
6379;DHT22;3222;48.858;10.128;2022-12-10T01:50:39;0.70;99.90
6379;DHT22;3222;48.858;10.128;2022-12-10T01:53:05;0.70;99.90
6379;DHT22;3222;48.858;10.128;2022-12-10T01:58:04;0.60;99.90
6379;DHT22;3222;48.858;10.128;2022-12-10T02:00:32;0.50;99.90
6379;DHT22;3222;48.858;10.128;2022-12-10T02:03:06;0.50;99.90
6379;DHT22;3222;48.858;10.128;2022-12-10T02:05:42;0.50;99.90
6379;DHT22;3222;48.858;10.128;2022-12-10T02:08:27;0.50;99.90
6379;DHT22;3222;48.858;10.128;2022-12-10T02:16:26;0.50;99.90
6379;DHT22;3222;48.858;10.128;2022-12-10T02:18:57;0.50;99.90
6379;DHT22;3222;48.858;10.128;2022-12-10T02:21:30;0.50;99.90
6379;DHT22;3222;48.858;10.128;2022-12-10T02:24:02;0.60;99.90
6379;DHT22;3222;48.858;10.128;2022-12-10T02:26:43;0.50;99.90
6379;DHT22;3222;48.858;10.128;2022-12-10T02:29:19;0.50;99.90
6379;DHT22;3222;48.858;10.128;2022-12-10T02:31:52;0.50;99.90
6379;DHT22;3222;48.858;10.128;2022-12-10T02:34:20;0.50;99.90
6379;DHT22;3222;48.858;10.128;2022-12-10T02:36:49;0.60;99.90
6379;DHT22;3222;48.858;10.128;2022-12-10T02:39:20;0.80;99.90
6379;DHT22;3222;48.858;10.128;2022-12-10T02:41:53;0.80;99.90
6379;DHT22;3222;48.858;10.128;2022-12-10T02:44:21;0.70;99.90
6379;DHT22;3222;48.858;10.128;2022-12-10T02:46:51;0.60;99.90
6379;DHT22;3222;48.858;10.128;2022-12-10T02:49:20;0.60;99.90
6379;DHT22;3222;48.858;10.128;2022-12-10T02:51:47;0.50;99.90
6379;DHT22;3222;48.858;10.128;2022-12-10T03:05:29;0.50;99.90
6379;DHT22;3222;48.858;10.128;2022-12-10T03:08:18;0.50;99.90
6379;DHT22;3222;48.858;10.128;2022-12-10T03:16:13;0.40;99.90
6379;DHT22;3222;48.858;10.128;2022-12-10T03:18:40;0.40;99.90
6379;DHT22;3222;48.858;10.128;2022-12-10T03:21:07;0.40;99.90
6379;DHT22;3222;48.858;10.128;2022-12-10T03:23:36;0.40;99.90
6379;DHT22;3222;48.858;10.128;2022-12-10T03:26:04;0.40;99.90
6379;DHT22;3222;48.858;10.128;2022-12-10T03:28:34;0.40;99.90
6379;DHT22;3222;48.858;10.128;2022-12-10T03:31:02;0.40;99.90
6379;DHT22;3222;48.858;10.128;2022-12-10T03:33:28;0.50;99.90
6379;DHT22;3222;48.858;10.128;2022-12-10T03:35:55;0.60;99.90
6379;DHT22;3222;48.858;10.128;2022-12-10T03:38:21;0.50;99.90
6379;DHT22;3222;48.858;10.128;2022-12-10T03:40:47;0.50;99.90
6379;DHT22;3222;48.858;10.128;2022-12-10T03:43:13;0.50;99.90
6379;DHT22;3222;48.858;10.128;2022-12-10T03:45:40;0.50;99.90
6379;DHT22;3222;48.858;10.128;2022-12-10T03:48:06;0.50;99.90
6379;DHT22;3222;48.858;10.128;2022-12-10T03:50:32;0.60;99.90
6379;DHT22;3222;48.858;10.128;2022-12-10T03:52:58;0.50;99.90
6379;DHT22;3222;48.858;10.128;2022-12-10T03:55:23;0.50;99.90
6379;DHT22;3222;48.858;10.128;2022-12-10T03:57:49;0.60;99.90
6379;DHT22;3222;48.858;10.128;2022-12-10T04:00:15;0.70;99.90
6379;DHT22;3222;48.858;10.128;2022-12-10T04:02:41;0.60;99.90
6379;DHT22;3222;48.858;10.128;2022-12-10T04:05:07;0.60;99.90
6379;DHT22;3222;48.858;10.128;2022-12-10T04:07:33;0.60;99.90
6379;DHT22;3222;48.858;10.128;2022-12-10T04:09:59;0.50;99.90
6379;DHT22;3222;48.858;10.128;2022-12-10T04:12:25;0.70;99.90
6379;DHT22;3222;48.858;10.128;2022-12-10T04:14:50;0.70;99.90
6379;DHT22;3222;48.858;10.128;2022-12-10T04:17:34;0.60;99.90
6379;DHT22;3222;48.858;10.128;2022-12-10T04:20:00;0.60;99.90
6379;DHT22;3222;48.858;10.128;2022-12-10T04:22:26;0.50;99.90
6379;DHT22;3222;48.858;10.128;2022-12-10T04:25:12;0.50;99.90
6379;DHT22;3222;48.858;10.128;2022-12-10T04:27:56;0.70;99.90
6379;DHT22;3222;48.858;10.128;2022-12-10T04:30:22;0.70;99.90
6379;DHT22;3222;48.858;10.128;2022-12-10T04:32:48;0.90;99.90
6379;DHT22;3222;48.858;10.128;2022-12-10T04:35:14;1.00;99.90
6379;DHT22;3222;48.858;10.128;2022-12-10T04:37:39;1.10;99.90
6379;DHT22;3222;48.858;10.128;2022-12-10T04:40:07;1.20;99.90
6379;DHT22;3222;48.858;10.128;2022-12-10T04:42:32;1.20;99.90
6379;DHT22;3222;48.858;10.128;2022-12-10T04:44:58;1.20;99.90
6379;DHT22;3222;48.858;10.128;2022-12-10T04:47:24;1.20;99.90
6379;DHT22;3222;48.858;10.128;2022-12-10T04:49:49;1.20;99.90
6379;DHT22;3222;48.858;10.128;2022-12-10T04:52:16;1.20;99.90
6379;DHT22;3222;48.858;10.128;2022-12-10T04:54:42;1.10;99.90
6379;DHT22;3222;48.858;10.128;2022-12-10T04:57:09;1.00;99.90
6379;DHT22;3222;48.858;10.128;2022-12-10T04:59:35;0.90;99.90
6379;DHT22;3222;48.858;10.128;2022-12-10T05:02:02;0.80;99.90
6379;DHT22;3222;48.858;10.128;2022-12-10T05:04:28;0.80;99.90
6379;DHT22;3222;48.858;10.128;2022-12-10T05:06:54;0.80;99.90
6379;DHT22;3222;48.858;10.128;2022-12-10T05:09:20;0.90;99.90
6379;DHT22;3222;48.858;10.128;2022-12-10T05:11:45;0.90;99.90
6379;DHT22;3222;48.858;10.128;2022-12-10T05:14:13;0.90;99.90
6379;DHT22;3222;48.858;10.128;2022-12-10T05:16:39;0.90;99.90
6379;DHT22;3222;48.858;10.128;2022-12-10T05:19:05;0.80;99.90
6379;DHT22;3222;48.858;10.128;2022-12-10T05:21:30;0.80;99.90
6379;DHT22;3222;48.858;10.128;2022-12-10T05:24:15;0.80;99.90
6379;DHT22;3222;48.858;10.128;2022-12-10T05:26:42;0.70;99.90
6379;DHT22;3222;48.858;10.128;2022-12-10T05:29:08;0.60;99.90
6379;DHT22;3222;48.858;10.128;2022-12-10T05:31:34;0.60;99.90
6379;DHT22;3222;48.858;10.128;2022-12-10T05:33:59;0.50;99.90
6379;DHT22;3222;48.858;10.128;2022-12-10T05:36:28;0.50;99.90
6379;DHT22;3222;48.858;10.128;2022-12-10T05:38:55;0.40;99.90
6379;DHT22;3222;48.858;10.128;2022-12-10T05:41:27;0.40;99.90
6379;DHT22;3222;48.858;10.128;2022-12-10T05:43:57;0.50;99.90
6379;DHT22;3222;48.858;10.128;2022-12-10T05:46:28;0.50;99.90
6379;DHT22;3222;48.858;10.128;2022-12-10T05:48:54;0.50;99.90
6379;DHT22;3222;48.858;10.128;2022-12-10T05:51:22;0.50;99.90
6379;DHT22;3222;48.858;10.128;2022-12-10T05:53:50;0.60;99.90
6379;DHT22;3222;48.858;10.128;2022-12-10T05:56:17;0.60;99.90
6379;DHT22;3222;48.858;10.128;2022-12-10T05:58:45;0.50;99.90
6379;DHT22;3222;48.858;10.128;2022-12-10T06:01:16;0.50;99.90
6379;DHT22;3222;48.858;10.128;2022-12-10T06:03:42;0.50;99.90
6379;DHT22;3222;48.858;10.128;2022-12-10T06:06:10;0.70;99.90
6379;DHT22;3222;48.858;10.128;2022-12-10T06:08:37;0.60;99.90
6379;DHT22;3222;48.858;10.128;2022-12-10T06:11:09;0.50;99.90
6379;DHT22;3222;48.858;10.128;2022-12-10T06:13:35;0.50;99.90
6379;DHT22;3222;48.858;10.128;2022-12-10T06:16:06;0.50;99.90
6379;DHT22;3222;48.858;10.128;2022-12-10T06:18:31;0.40;99.90
6379;DHT22;3222;48.858;10.128;2022-12-10T06:20:57;0.50;99.90
6379;DHT22;3222;48.858;10.128;2022-12-10T06:23:23;0.40;99.90
6379;DHT22;3222;48.858;10.128;2022-12-10T06:25:48;0.40;99.90
6379;DHT22;3222;48.858;10.128;2022-12-10T06:28:14;0.40;99.90
6379;DHT22;3222;48.858;10.128;2022-12-10T06:30:39;0.60;99.90
6379;DHT22;3222;48.858;10.128;2022-12-10T06:33:05;0.50;99.90
6379;DHT22;3222;48.858;10.128;2022-12-10T06:35:31;0.60;99.90
6379;DHT22;3222;48.858;10.128;2022-12-10T06:37:56;0.50;99.90
6379;DHT22;3222;48.858;10.128;2022-12-10T06:40:22;0.50;99.90
6379;DHT22;3222;48.858;10.128;2022-12-10T06:42:51;0.50;99.90
6379;DHT22;3222;48.858;10.128;2022-12-10T06:45:17;0.40;99.90
6379;DHT22;3222;48.858;10.128;2022-12-10T06:47:43;0.40;99.90
6379;DHT22;3222;48.858;10.128;2022-12-10T06:50:09;0.30;99.90
6379;DHT22;3222;48.858;10.128;2022-12-10T06:52:34;0.40;99.90
6379;DHT22;3222;48.858;10.128;2022-12-10T06:55:00;0.30;99.90
6379;DHT22;3222;48.858;10.128;2022-12-10T06:57:26;0.30;99.90
6379;DHT22;3222;48.858;10.128;2022-12-10T06:59:51;0.30;99.90
6379;DHT22;3222;48.858;10.128;2022-12-10T07:02:17;0.30;99.90
6379;DHT22;3222;48.858;10.128;2022-12-10T07:04:43;0.30;99.90
6379;DHT22;3222;48.858;10.128;2022-12-10T07:07:08;0.30;99.90
6379;DHT22;3222;48.858;10.128;2022-12-10T07:09:34;0.20;99.90
6379;DHT22;3222;48.858;10.128;2022-12-10T07:12:00;0.20;99.90
6379;DHT22;3222;48.858;10.128;2022-12-10T07:14:25;0.20;99.90
6379;DHT22;3222;48.858;10.128;2022-12-10T07:16:51;0.20;99.90
6379;DHT22;3222;48.858;10.128;2022-12-10T07:19:17;0.20;99.90
6379;DHT22;3222;48.858;10.128;2022-12-10T07:21:43;0.30;99.90
6379;DHT22;3222;48.858;10.128;2022-12-10T07:24:14;0.30;99.90
6379;DHT22;3222;48.858;10.128;2022-12-10T07:26:41;0.30;99.90
6379;DHT22;3222;48.858;10.128;2022-12-10T07:29:12;0.30;99.90
6379;DHT22;3222;48.858;10.128;2022-12-10T07:31:38;0.40;99.90
6379;DHT22;3222;48.858;10.128;2022-12-10T07:34:04;0.40;99.90
6379;DHT22;3222;48.858;10.128;2022-12-10T07:36:30;0.40;99.90
6379;DHT22;3222;48.858;10.128;2022-12-10T07:38:56;0.40;99.90
6379;DHT22;3222;48.858;10.128;2022-12-10T07:41:23;0.50;99.90
6379;DHT22;3222;48.858;10.128;2022-12-10T07:43:48;0.50;99.90
6379;DHT22;3222;48.858;10.128;2022-12-10T07:46:24;0.50;99.90
6379;DHT22;3222;48.858;10.128;2022-12-10T07:48:50;0.50;99.90
6379;DHT22;3222;48.858;10.128;2022-12-10T07:51:18;0.40;99.90
6379;DHT22;3222;48.858;10.128;2022-12-10T07:53:44;0.40;99.90
6379;DHT22;3222;48.858;10.128;2022-12-10T07:56:10;0.40;99.90
6379;DHT22;3222;48.858;10.128;2022-12-10T07:58:36;0.30;99.90
6379;DHT22;3222;48.858;10.128;2022-12-10T08:01:13;0.30;99.90
6379;DHT22;3222;48.858;10.128;2022-12-10T08:03:39;0.30;99.90
6379;DHT22;3222;48.858;10.128;2022-12-10T08:06:07;0.40;99.90
6379;DHT22;3222;48.858;10.128;2022-12-10T08:08:34;0.40;99.90
6379;DHT22;3222;48.858;10.128;2022-12-10T08:11:01;0.30;99.90
6379;DHT22;3222;48.858;10.128;2022-12-10T08:13:27;0.30;99.90
6379;DHT22;3222;48.858;10.128;2022-12-10T08:15:53;0.30;99.90
6379;DHT22;3222;48.858;10.128;2022-12-10T08:18:20;0.30;99.90
6379;DHT22;3222;48.858;10.128;2022-12-10T08:20:46;0.30;99.90
6379;DHT22;3222;48.858;10.128;2022-12-10T08:23:12;0.30;99.90
6379;DHT22;3222;48.858;10.128;2022-12-10T08:25:37;0.30;99.90
6379;DHT22;3222;48.858;10.128;2022-12-10T08:28:03;0.30;99.90
6379;DHT22;3222;48.858;10.128;2022-12-10T08:30:29;0.40;99.90
6379;DHT22;3222;48.858;10.128;2022-12-10T08:32:55;0.50;99.90
6379;DHT22;3222;48.858;10.128;2022-12-10T08:35:21;0.40;99.90
6379;DHT22;3222;48.858;10.128;2022-12-10T08:37:47;0.40;99.90
6379;DHT22;3222;48.858;10.128;2022-12-10T08:40:12;0.40;99.90
6379;DHT22;3222;48.858;10.128;2022-12-10T08:42:38;0.40;99.90
6379;DHT22;3222;48.858;10.128;2022-12-10T08:45:05;0.30;99.90
6379;DHT22;3222;48.858;10.128;2022-12-10T08:47:30;0.40;99.90
6379;DHT22;3222;48.858;10.128;2022-12-10T08:49:56;0.40;99.90
6379;DHT22;3222;48.858;10.128;2022-12-10T08:52:22;0.30;99.90
6379;DHT22;3222;48.858;10.128;2022-12-10T08:54:47;0.40;99.90
6379;DHT22;3222;48.858;10.128;2022-12-10T08:57:13;0.30;99.90
6379;DHT22;3222;48.858;10.128;2022-12-10T08:59:38;0.40;99.90
6379;DHT22;3222;48.858;10.128;2022-12-10T09:02:04;0.40;99.90
6379;DHT22;3222;48.858;10.128;2022-12-10T09:04:30;0.40;99.90
6379;DHT22;3222;48.858;10.128;2022-12-10T09:06:55;0.40;99.90
6379;DHT22;3222;48.858;10.128;2022-12-10T09:09:21;0.40;99.90
6379;DHT22;3222;48.858;10.128;2022-12-10T09:11:47;0.50;99.90
6379;DHT22;3222;48.858;10.128;2022-12-10T09:14:13;0.50;99.90
6379;DHT22;3222;48.858;10.128;2022-12-10T09:16:38;0.50;99.90
6379;DHT22;3222;48.858;10.128;2022-12-10T09:19:05;0.50;99.90
6379;DHT22;3222;48.858;10.128;2022-12-10T09:21:32;0.50;99.90
6379;DHT22;3222;48.858;10.128;2022-12-10T09:23:58;0.40;99.90
6379;DHT22;3222;48.858;10.128;2022-12-10T09:26:24;0.50;99.90
6379;DHT22;3222;48.858;10.128;2022-12-10T09:28:50;0.60;99.90
6379;DHT22;3222;48.858;10.128;2022-12-10T09:31:19;0.50;99.90
6379;DHT22;3222;48.858;10.128;2022-12-10T09:33:45;0.50;99.90
6379;DHT22;3222;48.858;10.128;2022-12-10T09:36:12;0.50;99.90
6379;DHT22;3222;48.858;10.128;2022-12-10T09:38:40;0.50;99.90
6379;DHT22;3222;48.858;10.128;2022-12-10T09:46:10;0.40;99.90
6379;DHT22;3222;48.858;10.128;2022-12-10T09:51:23;0.40;99.90
6379;DHT22;3222;48.858;10.128;2022-12-10T09:53:51;0.40;99.90
6379;DHT22;3222;48.858;10.128;2022-12-10T09:56:28;0.40;99.90
6379;DHT22;3222;48.858;10.128;2022-12-10T09:58:56;0.40;99.90
6379;DHT22;3222;48.858;10.128;2022-12-10T10:01:25;0.50;99.90
6379;DHT22;3222;48.858;10.128;2022-12-10T10:03:52;0.50;99.90
6379;DHT22;3222;48.858;10.128;2022-12-10T10:06:20;0.60;99.90
6379;DHT22;3222;48.858;10.128;2022-12-10T10:08:51;0.50;99.90
6379;DHT22;3222;48.858;10.128;2022-12-10T10:11:20;0.60;99.90
6379;DHT22;3222;48.858;10.128;2022-12-10T10:13:53;0.60;99.90
6379;DHT22;3222;48.858;10.128;2022-12-10T10:16:26;0.50;99.90
6379;DHT22;3222;48.858;10.128;2022-12-10T10:19:05;0.50;99.90
6379;DHT22;3222;48.858;10.128;2022-12-10T10:22:04;0.50;99.90
6379;DHT22;3222;48.858;10.128;2022-12-10T10:24:28;0.50;99.90
6379;DHT22;3222;48.858;10.128;2022-12-10T10:26:58;0.50;99.90
6379;DHT22;3222;48.858;10.128;2022-12-10T10:29:25;0.50;99.90
6379;DHT22;3222;48.858;10.128;2022-12-10T10:32:17;0.50;99.90
6379;DHT22;3222;48.858;10.128;2022-12-10T10:34:44;0.60;99.90
6379;DHT22;3222;48.858;10.128;2022-12-10T10:37:18;0.60;99.90
6379;DHT22;3222;48.858;10.128;2022-12-10T10:39:47;0.70;99.90
6379;DHT22;3222;48.858;10.128;2022-12-10T10:42:27;0.70;99.90
6379;DHT22;3222;48.858;10.128;2022-12-10T10:44:58;0.60;99.90
6379;DHT22;3222;48.858;10.128;2022-12-10T10:47:31;0.70;99.90
6379;DHT22;3222;48.858;10.128;2022-12-10T10:49:57;0.70;99.90
6379;DHT22;3222;48.858;10.128;2022-12-10T10:52:28;0.70;99.90
6379;DHT22;3222;48.858;10.128;2022-12-10T10:54:54;0.70;99.90
6379;DHT22;3222;48.858;10.128;2022-12-10T10:57:27;0.60;99.90
6379;DHT22;3222;48.858;10.128;2022-12-10T10:59:56;0.70;99.90
6379;DHT22;3222;48.858;10.128;2022-12-10T11:02:30;0.80;99.90
6379;DHT22;3222;48.858;10.128;2022-12-10T11:04:57;0.80;99.90
6379;DHT22;3222;48.858;10.128;2022-12-10T11:09:55;0.70;99.90
6379;DHT22;3222;48.858;10.128;2022-12-10T11:12:42;0.70;99.90
6379;DHT22;3222;48.858;10.128;2022-12-10T11:17:50;0.70;99.90
6379;DHT22;3222;48.858;10.128;2022-12-10T11:20:20;0.80;99.90
6379;DHT22;3222;48.858;10.128;2022-12-10T11:22:52;0.80;99.90
6379;DHT22;3222;48.858;10.128;2022-12-10T11:25:25;0.70;99.90
6379;DHT22;3222;48.858;10.128;2022-12-10T11:30:23;0.70;99.90
6379;DHT22;3222;48.858;10.128;2022-12-10T11:33:16;0.80;99.90
6379;DHT22;3222;48.858;10.128;2022-12-10T11:39:13;0.70;99.90
6379;DHT22;3222;48.858;10.128;2022-12-10T11:49:39;0.90;99.90
6379;DHT22;3222;48.858;10.128;2022-12-10T11:52:18;0.90;99.90
6379;DHT22;3222;48.858;10.128;2022-12-10T11:57:54;0.80;99.90
6379;DHT22;3222;48.858;10.128;2022-12-10T12:00:27;0.80;99.90
6379;DHT22;3222;48.858;10.128;2022-12-10T12:11:34;1.00;99.90
6379;DHT22;3222;48.858;10.128;2022-12-10T12:14:16;0.90;99.90
6379;DHT22;3222;48.858;10.128;2022-12-10T12:17:04;0.90;99.90
6379;DHT22;3222;48.858;10.128;2022-12-10T12:19:36;0.80;99.90
6379;DHT22;3222;48.858;10.128;2022-12-10T12:22:16;0.80;99.90
6379;DHT22;3222;48.858;10.128;2022-12-10T12:24:46;0.90;99.90
6379;DHT22;3222;48.858;10.128;2022-12-10T12:30:24;0.90;99.90
6379;DHT22;3222;48.858;10.128;2022-12-10T12:35:23;0.90;99.90
6379;DHT22;3222;48.858;10.128;2022-12-10T12:37:58;0.90;99.90
6379;DHT22;3222;48.858;10.128;2022-12-10T12:40:33;0.90;99.90
6379;DHT22;3222;48.858;10.128;2022-12-10T12:43:03;0.90;99.90
6379;DHT22;3222;48.858;10.128;2022-12-10T12:45:41;0.80;99.90
6379;DHT22;3222;48.858;10.128;2022-12-10T12:51:00;0.70;99.90
6379;DHT22;3222;48.858;10.128;2022-12-10T12:53:26;0.80;99.90
6379;DHT22;3222;48.858;10.128;2022-12-10T12:56:32;0.80;99.90
6379;DHT22;3222;48.858;10.128;2022-12-10T13:01:53;1.00;99.90
6379;DHT22;3222;48.858;10.128;2022-12-10T13:04:24;1.00;99.90
6379;DHT22;3222;48.858;10.128;2022-12-10T13:10:07;1.00;99.90
6379;DHT22;3222;48.858;10.128;2022-12-10T13:15:41;0.90;99.90
6379;DHT22;3222;48.858;10.128;2022-12-10T13:20:49;0.80;99.90
6379;DHT22;3222;48.858;10.128;2022-12-10T13:28:52;0.90;99.90
6379;DHT22;3222;48.858;10.128;2022-12-10T13:31:22;0.90;99.90
6379;DHT22;3222;48.858;10.128;2022-12-10T13:34:05;0.90;99.90
6379;DHT22;3222;48.858;10.128;2022-12-10T13:36:37;1.00;99.90
6379;DHT22;3222;48.858;10.128;2022-12-10T13:41:30;1.00;99.90
6379;DHT22;3222;48.858;10.128;2022-12-10T13:44:37;1.10;99.90
6379;DHT22;3222;48.858;10.128;2022-12-10T13:50:06;1.00;99.90
6379;DHT22;3222;48.858;10.128;2022-12-10T13:53:03;0.90;99.90
6379;DHT22;3222;48.858;10.128;2022-12-10T13:55:35;0.90;99.90
6379;DHT22;3222;48.858;10.128;2022-12-10T14:00:49;0.90;99.90
6379;DHT22;3222;48.858;10.128;2022-12-10T14:06:14;0.90;99.90
6379;DHT22;3222;48.858;10.128;2022-12-10T14:08:54;0.90;99.90
6379;DHT22;3222;48.858;10.128;2022-12-10T14:11:25;1.00;99.90
6379;DHT22;3222;48.858;10.128;2022-12-10T14:13:55;1.00;99.90
6379;DHT22;3222;48.858;10.128;2022-12-10T14:16:23;1.00;99.90
6379;DHT22;3222;48.858;10.128;2022-12-10T14:19:01;1.00;99.90
6379;DHT22;3222;48.858;10.128;2022-12-10T14:21:36;1.00;99.90
6379;DHT22;3222;48.858;10.128;2022-12-10T14:24:04;0.90;99.90
6379;DHT22;3222;48.858;10.128;2022-12-10T14:26:33;0.90;99.90
6379;DHT22;3222;48.858;10.128;2022-12-10T14:29:17;0.90;99.90
6379;DHT22;3222;48.858;10.128;2022-12-10T14:31:48;0.90;99.90
6379;DHT22;3222;48.858;10.128;2022-12-10T14:34:21;0.90;99.90
6379;DHT22;3222;48.858;10.128;2022-12-10T14:36:50;0.80;99.90
6379;DHT22;3222;48.858;10.128;2022-12-10T14:39:31;0.90;99.90
6379;DHT22;3222;48.858;10.128;2022-12-10T14:42:01;0.90;99.90
6379;DHT22;3222;48.858;10.128;2022-12-10T14:44:27;1.00;99.90
6379;DHT22;3222;48.858;10.128;2022-12-10T14:47:13;1.00;99.90
6379;DHT22;3222;48.858;10.128;2022-12-10T14:49:52;1.00;99.90
6379;DHT22;3222;48.858;10.128;2022-12-10T14:52:31;0.90;99.90
6379;DHT22;3222;48.858;10.128;2022-12-10T14:54:58;0.90;99.90
6379;DHT22;3222;48.858;10.128;2022-12-10T14:57:34;0.80;99.90
6379;DHT22;3222;48.858;10.128;2022-12-10T15:00:11;0.80;99.90
6379;DHT22;3222;48.858;10.128;2022-12-10T15:02:44;0.70;99.90
6379;DHT22;3222;48.858;10.128;2022-12-10T15:05:17;0.70;99.90
6379;DHT22;3222;48.858;10.128;2022-12-10T15:07:56;0.80;99.90
6379;DHT22;3222;48.858;10.128;2022-12-10T15:12:53;0.80;99.90
6379;DHT22;3222;48.858;10.128;2022-12-10T15:15:29;0.70;99.90
6379;DHT22;3222;48.858;10.128;2022-12-10T15:28:42;0.70;99.90
6379;DHT22;3222;48.858;10.128;2022-12-10T15:31:28;0.60;99.90
6379;DHT22;3222;48.858;10.128;2022-12-10T15:34:07;0.70;99.90
6379;DHT22;3222;48.858;10.128;2022-12-10T15:47:01;0.70;99.90
6379;DHT22;3222;48.858;10.128;2022-12-10T15:49:28;0.80;99.90
6379;DHT22;3222;48.858;10.128;2022-12-10T15:51:54;0.70;99.90
6379;DHT22;3222;48.858;10.128;2022-12-10T15:56:49;0.60;99.90
6379;DHT22;3222;48.858;10.128;2022-12-10T15:59:14;0.60;99.90
6379;DHT22;3222;48.858;10.128;2022-12-10T16:01:40;0.60;99.90
6379;DHT22;3222;48.858;10.128;2022-12-10T16:04:06;0.50;99.90
6379;DHT22;3222;48.858;10.128;2022-12-10T16:06:31;0.60;99.90
6379;DHT22;3222;48.858;10.128;2022-12-10T16:08:57;0.50;99.90
6379;DHT22;3222;48.858;10.128;2022-12-10T16:11:22;0.50;99.90
6379;DHT22;3222;48.858;10.128;2022-12-10T16:13:52;0.50;99.90
6379;DHT22;3222;48.858;10.128;2022-12-10T16:16:18;0.50;99.90
6379;DHT22;3222;48.858;10.128;2022-12-10T16:18:44;0.50;99.90
6379;DHT22;3222;48.858;10.128;2022-12-10T16:21:09;0.60;99.90
6379;DHT22;3222;48.858;10.128;2022-12-10T16:23:36;0.50;99.90
6379;DHT22;3222;48.858;10.128;2022-12-10T16:26:18;0.50;99.90
6379;DHT22;3222;48.858;10.128;2022-12-10T16:28:44;0.50;99.90
6379;DHT22;3222;48.858;10.128;2022-12-10T16:31:14;0.40;99.90
6379;DHT22;3222;48.858;10.128;2022-12-10T16:33:39;0.40;99.90
6379;DHT22;3222;48.858;10.128;2022-12-10T16:36:06;0.50;99.90
6379;DHT22;3222;48.858;10.128;2022-12-10T16:38:31;0.50;99.90
6379;DHT22;3222;48.858;10.128;2022-12-10T16:40:58;0.50;99.90
6379;DHT22;3222;48.858;10.128;2022-12-10T16:43:27;0.50;99.90
6379;DHT22;3222;48.858;10.128;2022-12-10T16:45:57;0.50;99.90
6379;DHT22;3222;48.858;10.128;2022-12-10T16:48:23;0.50;99.90
6379;DHT22;3222;48.858;10.128;2022-12-10T16:50:50;0.40;99.90
6379;DHT22;3222;48.858;10.128;2022-12-10T16:53:20;0.40;99.90
6379;DHT22;3222;48.858;10.128;2022-12-10T16:55:46;0.50;99.90
6379;DHT22;3222;48.858;10.128;2022-12-10T16:58:13;0.50;99.90
6379;DHT22;3222;48.858;10.128;2022-12-10T17:00:41;0.50;99.90
6379;DHT22;3222;48.858;10.128;2022-12-10T17:03:11;0.50;99.90
6379;DHT22;3222;48.858;10.128;2022-12-10T17:05:57;0.50;99.90
6379;DHT22;3222;48.858;10.128;2022-12-10T17:08:25;0.50;99.90
6379;DHT22;3222;48.858;10.128;2022-12-10T17:10:51;0.50;99.90
6379;DHT22;3222;48.858;10.128;2022-12-10T17:13:36;0.50;99.90
6379;DHT22;3222;48.858;10.128;2022-12-10T17:16:03;0.50;99.90
6379;DHT22;3222;48.858;10.128;2022-12-10T17:18:33;0.60;99.90
6379;DHT22;3222;48.858;10.128;2022-12-10T17:20:59;0.60;99.90
6379;DHT22;3222;48.858;10.128;2022-12-10T17:23:24;0.60;99.90
6379;DHT22;3222;48.858;10.128;2022-12-10T17:25:51;0.60;99.90
6379;DHT22;3222;48.858;10.128;2022-12-10T17:28:20;0.60;99.90
6379;DHT22;3222;48.858;10.128;2022-12-10T17:30:46;0.60;99.90
6379;DHT22;3222;48.858;10.128;2022-12-10T17:33:18;0.50;99.90
6379;DHT22;3222;48.858;10.128;2022-12-10T17:35:45;0.50;99.90
6379;DHT22;3222;48.858;10.128;2022-12-10T17:38:17;0.60;99.90
6379;DHT22;3222;48.858;10.128;2022-12-10T17:40:43;0.60;99.90
6379;DHT22;3222;48.858;10.128;2022-12-10T17:43:10;0.50;99.90
6379;DHT22;3222;48.858;10.128;2022-12-10T17:45:36;0.50;99.90
6379;DHT22;3222;48.858;10.128;2022-12-10T17:48:03;0.50;99.90
6379;DHT22;3222;48.858;10.128;2022-12-10T17:50:35;0.60;99.90
6379;DHT22;3222;48.858;10.128;2022-12-10T17:53:03;0.70;99.90
6379;DHT22;3222;48.858;10.128;2022-12-10T17:55:29;0.70;99.90
6379;DHT22;3222;48.858;10.128;2022-12-10T17:57:56;0.70;99.90
6379;DHT22;3222;48.858;10.128;2022-12-10T18:00:26;0.50;99.90
6379;DHT22;3222;48.858;10.128;2022-12-10T18:02:52;0.50;99.90
6379;DHT22;3222;48.858;10.128;2022-12-10T18:05:18;0.40;99.90
6379;DHT22;3222;48.858;10.128;2022-12-10T18:07:43;0.50;99.90
6379;DHT22;3222;48.858;10.128;2022-12-10T18:10:22;0.40;99.90
6379;DHT22;3222;48.858;10.128;2022-12-10T18:12:48;0.40;99.90
6379;DHT22;3222;48.858;10.128;2022-12-10T18:15:20;0.30;99.90
6379;DHT22;3222;48.858;10.128;2022-12-10T18:17:46;0.30;99.90
6379;DHT22;3222;48.858;10.128;2022-12-10T18:20:33;0.30;99.90
6379;DHT22;3222;48.858;10.128;2022-12-10T18:23:00;0.30;99.90